Time;durP1;ratioP1;P1;durP2;ratioP2;P2;SDS_P1;SDS_P2;PMS_P1;PMS_P2;Temp;Humidity;BMP_temperature;BMP_pressure;BME280_temperature;BME280_humidity;BME280_pressure;Samples;Min_cycle;Max_cycle;Signal;HPM_P1;HPM_P2
2021/01/27 00:00:16;;;;;;;39.13;19.13;;;4.30;70.00;;;;;;4920776;29;20119;-91
2021/01/27 00:02:42;;;;;;;32.40;16.67;;;4.20;70.00;;;;;;4919967;29;20064;-90
2021/01/27 00:05:12;;;;;;;36.55;17.48;;;4.20;70.10;;;;;;4920512;29;20024;-90
2021/01/27 00:07:37;;;;;;;35.97;18.15;;;4.20;70.00;;;;;;4920289;29;20036;-90
2021/01/27 00:10:04;;;;;;;32.72;17.63;;;4.30;70.10;;;;;;4919511;29;20043;-91
2021/01/27 00:12:30;;;;;;;37.55;18.83;;;4.20;70.10;;;;;;4920920;29;20036;-91
2021/01/27 00:14:56;;;;;;;33.10;17.70;;;4.20;70.30;;;;;;4919918;29;20052;-91
2021/01/27 00:17:21;;;;;;;44.10;21.98;;;4.30;70.30;;;;;;4920193;29;20032;-92
2021/01/27 00:19:47;;;;;;;51.05;23.73;;;4.30;70.30;;;;;;4918735;29;20020;-91
2021/01/27 00:22:13;;;;;;;49.88;25.45;;;4.30;70.20;;;;;;4921690;29;20036;-91
2021/01/27 00:24:38;;;;;;;65.25;28.48;;;4.20;70.10;;;;;;4921395;29;20028;-91
2021/01/27 00:27:04;;;;;;;64.68;29.20;;;4.20;70.10;;;;;;4920590;29;20071;-91
2021/01/27 00:29:30;;;;;;;69.22;31.70;;;4.20;70.00;;;;;;4924184;29;20063;-90
2021/01/27 00:31:56;;;;;;;86.82;36.92;;;4.10;70.00;;;;;;4925813;29;20091;-92
2021/01/27 00:34:21;;;;;;;87.25;38.88;;;4.10;70.20;;;;;;4925880;29;20036;-90
2021/01/27 00:36:51;;;;;;;86.82;38.75;;;4.10;70.40;;;;;;4923603;29;20485;-91
2021/01/27 00:39:17;;;;;;;81.93;37.72;;;4.10;70.50;;;;;;4919781;29;20498;-92
2021/01/27 00:41:44;;;;;;;72.68;32.35;;;4.10;70.30;;;;;;4920241;29;20359;-92
2021/01/27 00:44:10;;;;;;;67.80;30.85;;;4.10;70.20;;;;;;4919843;29;20024;-91
2021/01/27 00:46:36;;;;;;;73.72;32.45;;;4.10;70.10;;;;;;4920774;29;20047;-90
2021/01/27 00:49:03;;;;;;;50.65;24.27;;;4.10;69.90;;;;;;4920117;29;20056;-90
2021/01/27 00:51:29;;;;;;;49.63;24.77;;;4.00;69.80;;;;;;4920252;29;20031;-92
2021/01/27 00:53:55;;;;;;;39.28;19.38;;;4.00;69.80;;;;;;4918535;29;20035;-91
2021/01/27 00:56:21;;;;;;;46.50;21.27;;;4.00;69.80;;;;;;4920394;29;20039;-91
2021/01/27 00:58:48;;;;;;;43.58;20.88;;;4.10;69.80;;;;;;4918586;29;20032;-89
2021/01/27 01:01:14;;;;;;;55.47;23.75;;;4.10;69.90;;;;;;4920108;29;20067;-91
2021/01/27 01:03:40;;;;;;;46.03;23.75;;;4.10;69.80;;;;;;4919692;29;20036;-91
2021/01/27 01:06:05;;;;;;;46.78;22.98;;;4.10;69.80;;;;;;4919606;29;20039;-92
2021/01/27 01:08:31;;;;;;;46.70;22.75;;;4.20;69.80;;;;;;4919677;29;20046;-91
2021/01/27 01:10:59;;;;;;;48.58;23.17;;;4.20;69.80;;;;;;4918408;29;20056;-91
2021/01/27 01:13:33;;;;;;;51.08;24.60;;;4.20;69.70;;;;;;4918634;29;20127;-91
2021/01/27 01:15:59;;;;;;;40.83;20.48;;;4.20;69.60;;;;;;4919574;29;20383;-91
2021/01/27 01:18:26;;;;;;;32.03;16.98;;;4.30;69.50;;;;;;4919594;29;20028;-91
2021/01/27 01:20:52;;;;;;;37.88;18.42;;;4.30;69.50;;;;;;4919583;29;20020;-91
2021/01/27 01:23:20;;;;;;;40.28;19.77;;;4.30;69.20;;;;;;4919519;29;20028;-91
2021/01/27 01:25:47;;;;;;;44.67;22.40;;;4.40;69.10;;;;;;4919258;29;20490;-90
2021/01/27 01:28:13;;;;;;;42.75;20.33;;;4.40;68.90;;;;;;4919291;29;20118;-90
2021/01/27 01:30:42;;;;;;;42.15;20.50;;;4.40;68.80;;;;;;4919252;29;20502;-93
2021/01/27 01:33:11;;;;;;;54.17;26.02;;;4.40;68.70;;;;;;4919246;29;20088;-92
2021/01/27 01:35:37;;;;;;;44.35;23.05;;;4.40;68.80;;;;;;4919135;29;20037;-91
2021/01/27 01:38:04;;;;;;;46.22;22.77;;;4.40;68.80;;;;;;4934970;29;20035;-91
2021/01/27 01:40:32;;;;;;;48.95;24.73;;;4.40;68.60;;;;;;4938588;29;20406;-92
2021/01/27 01:43:14;;;;;;;55.28;26.52;;;4.50;68.70;;;;;;4938133;29;20122;-90
2021/01/27 01:45:48;;;;;;;46.42;22.63;;;4.50;68.60;;;;;;4938109;29;20036;-92
2021/01/27 01:48:25;;;;;;;42.15;20.50;;;4.60;68.40;;;;;;4937836;29;20044;-91
2021/01/27 01:51:05;;;;;;;48.50;23.83;;;4.50;68.30;;;;;;4938249;29;20058;-92
2021/01/27 01:53:31;;;;;;;35.10;18.42;;;4.60;68.30;;;;;;4937478;29;20032;-92
2021/01/27 01:56:01;;;;;;;41.30;20.15;;;4.60;68.50;;;;;;4937409;29;20505;-91
2021/01/27 01:58:28;;;;;;;33.63;16.02;;;4.70;68.30;;;;;;4938106;29;20489;-90
2021/01/27 02:00:56;;;;;;;42.65;20.90;;;4.70;68.00;;;;;;4937854;29;20627;-91
2021/01/27 02:03:22;;;;;;;40.60;19.70;;;4.70;67.90;;;;;;4937757;29;20036;-91
2021/01/27 02:05:49;;;;;;;38.40;19.55;;;4.80;67.90;;;;;;4937624;29;20026;-92
2021/01/27 02:08:15;;;;;;;47.13;21.95;;;4.80;67.90;;;;;;4937823;29;20457;-91
2021/01/27 02:10:41;;;;;;;51.33;24.40;;;4.90;67.90;;;;;;4938909;29;20032;-90
2021/01/27 02:13:19;;;;;;;38.78;19.73;;;4.90;67.80;;;;;;4937824;29;20042;-91
2021/01/27 02:16:01;;;;;;;43.47;22.40;;;5.00;67.30;;;;;;4937747;29;20545;-92
2021/01/27 02:18:46;;;;;;;34.45;16.48;;;4.90;66.90;;;;;;4938836;29;20051;-90
2021/01/27 02:21:35;;;;;;;22.10;11.38;;;4.90;66.70;;;;;;4937453;29;20059;-89
2021/01/27 02:24:22;;;;;;;17.75;9.93;;;4.90;66.60;;;;;;4937911;29;20415;-90
2021/01/27 02:27:01;;;;;;;17.52;10.10;;;4.80;66.90;;;;;;4939205;29;20043;-90
2021/01/27 02:29:57;;;;;;;16.63;9.77;;;4.80;66.80;;;;;;4943383;29;20031;-90
2021/01/27 02:32:28;;;;;;;15.43;9.40;;;4.80;66.80;;;;;;4947203;29;20028;-89
2021/01/27 02:35:03;;;;;;;19.52;10.35;;;4.80;66.70;;;;;;4949476;29;20027;-89
2021/01/27 02:37:53;;;;;;;22.25;10.77;;;4.80;66.70;;;;;;4950613;29;20027;-91
2021/01/27 02:40:31;;;;;;;18.65;10.23;;;4.90;66.90;;;;;;4950361;29;20028;-90
2021/01/27 02:43:30;;;;;;;15.50;9.35;;;4.90;66.80;;;;;;4944981;29;20071;-92
2021/01/27 02:46:29;;;;;;;17.80;9.73;;;4.90;66.50;;;;;;4937055;29;20107;-91
2021/01/27 02:49:10;;;;;;;15.48;9.75;;;5.00;66.60;;;;;;4921270;29;20047;-90
2021/01/27 02:51:54;;;;;;;17.65;9.65;;;5.00;66.60;;;;;;4937207;29;20525;-92
2021/01/27 02:54:28;;;;;;;15.23;9.60;;;5.00;66.50;;;;;;4936356;29;20406;-91
2021/01/27 02:57:07;;;;;;;19.30;9.68;;;5.00;66.40;;;;;;4937087;29;20036;-91
2021/01/27 02:59:33;;;;;;;20.13;11.63;;;5.00;66.30;;;;;;4937801;29;20039;-90
2021/01/27 03:02:01;;;;;;;19.50;10.30;;;5.10;66.40;;;;;;4937290;29;20108;-91
2021/01/27 03:04:34;;;;;;;18.95;11.07;;;5.00;66.30;;;;;;4937272;29;20027;-92
2021/01/27 03:07:02;;;;;;;18.95;10.30;;;5.10;66.20;;;;;;4937815;29;20091;-92
2021/01/27 03:09:49;;;;;;;19.27;10.45;;;5.10;66.20;;;;;;4937372;29;20032;-90
2021/01/27 03:12:15;;;;;;;21.00;10.27;;;5.20;66.00;;;;;;4943328;29;20479;-91
2021/01/27 03:14:40;;;;;;;17.80;10.25;;;5.20;66.20;;;;;;4943092;29;20043;-90
2021/01/27 03:17:13;;;;;;;22.70;12.23;;;5.20;66.10;;;;;;4938008;29;20035;-92
2021/01/27 03:20:04;;;;;;;18.67;10.75;;;5.20;65.90;;;;;;4936214;29;20047;-90
2021/01/27 03:22:40;;;;;;;17.80;10.75;;;5.20;65.70;;;;;;4944252;29;20422;-90
2021/01/27 03:25:11;;;;;;;19.13;10.60;;;5.30;65.90;;;;;;4943643;29;20059;-90
2021/01/27 03:27:43;;;;;;;17.40;10.32;;;5.30;65.80;;;;;;4943611;29;20039;-92
2021/01/27 03:30:12;;;;;;;20.55;11.32;;;5.30;65.70;;;;;;4939682;29;20039;-91
2021/01/27 03:32:54;;;;;;;19.77;10.90;;;5.30;65.60;;;;;;4944678;29;20034;-90
2021/01/27 03:35:37;;;;;;;20.48;11.23;;;5.40;65.40;;;;;;4940835;29;20036;-91
2021/01/27 03:38:11;;;;;;;19.55;10.63;;;5.40;65.50;;;;;;4932221;29;20442;-90
2021/01/27 03:40:38;;;;;;;20.45;11.30;;;5.40;65.50;;;;;;4931221;29;20107;-90
2021/01/27 03:43:19;;;;;;;20.05;11.52;;;5.40;65.40;;;;;;4929205;29;20024;-90
2021/01/27 03:45:48;;;;;;;18.10;10.30;;;5.40;65.30;;;;;;4929025;29;20386;-91
2021/01/27 03:48:26;;;;;;;23.20;11.68;;;5.50;65.50;;;;;;4929528;29;20024;-91
2021/01/27 03:50:57;;;;;;;16.70;11.18;;;5.50;65.30;;;;;;4934069;29;20048;-89
2021/01/27 03:53:25;;;;;;;19.60;11.70;;;5.50;65.30;;;;;;4937838;29;20537;-91
2021/01/27 03:56:17;;;;;;;21.15;12.30;;;5.50;65.20;;;;;;4938581;29;20051;-90
2021/01/27 03:58:46;;;;;;;21.35;11.20;;;5.50;65.00;;;;;;4932456;29;20034;-91
2021/01/27 04:01:18;;;;;;;19.38;11.27;;;5.50;65.20;;;;;;4930046;29;20407;-91
2021/01/27 04:03:45;;;;;;;20.65;11.05;;;5.50;64.80;;;;;;4928054;29;20036;-90
2021/01/27 04:06:12;;;;;;;20.50;11.27;;;5.50;64.80;;;;;;4928368;29;20031;-90
2021/01/27 04:08:38;;;;;;;18.08;10.90;;;5.50;64.80;;;;;;4929003;29;20020;-92
2021/01/27 04:11:05;;;;;;;19.92;11.85;;;5.50;64.70;;;;;;4930054;29;20103;-91
2021/01/27 04:13:31;;;;;;;22.15;12.38;;;5.50;64.70;;;;;;4928717;29;20079;-90
2021/01/27 04:15:57;;;;;;;25.38;13.93;;;5.50;64.80;;;;;;4928847;29;20067;-91
2021/01/27 04:18:23;;;;;;;19.33;12.23;;;5.50;64.80;;;;;;4930513;29;20024;-91
2021/01/27 04:20:49;;;;;;;19.77;11.43;;;5.50;64.60;;;;;;4928964;29;20117;-90
2021/01/27 04:23:15;;;;;;;21.90;11.95;;;5.50;64.70;;;;;;4928769;29;20099;-92
2021/01/27 04:25:41;;;;;;;19.85;11.35;;;5.50;64.60;;;;;;4930137;29;20431;-91
2021/01/27 04:28:06;;;;;;;19.17;11.38;;;5.50;64.60;;;;;;4945190;29;20027;-92
2021/01/27 04:30:34;;;;;;;20.10;11.38;;;5.50;64.40;;;;;;4930196;29;20296;-92
2021/01/27 04:33:01;;;;;;;19.80;10.73;;;5.50;64.30;;;;;;4930101;29;20426;-92
2021/01/27 04:35:27;;;;;;;17.27;10.23;;;5.50;64.90;;;;;;4928878;29;20029;-92
2021/01/27 04:37:53;;;;;;;16.38;9.10;;;5.50;64.30;;;;;;4929118;29;20031;-90
2021/01/27 04:40:30;;;;;;;15.82;9.68;;;5.50;64.10;;;;;;4930440;29;20024;-91
2021/01/27 04:42:56;;;;;;;17.00;10.15;;;5.40;64.50;;;;;;4931380;29;20032;-89
2021/01/27 04:45:23;;;;;;;17.23;10.35;;;5.40;64.00;;;;;;4931660;29;20035;-88
2021/01/27 04:48:10;;;;;;;15.60;9.55;;;5.40;63.90;;;;;;4939889;29;20133;-90
2021/01/27 04:50:46;;;;;;;15.25;9.15;;;5.40;63.70;;;;;;4934531;29;20052;-91
2021/01/27 04:53:33;;;;;;;17.08;9.77;;;5.40;63.80;;;;;;4933280;29;20034;-88
2021/01/27 04:56:27;;;;;;;14.45;9.05;;;5.30;63.70;;;;;;4929006;29;20505;-83
2021/01/27 04:58:55;;;;;;;16.30;9.68;;;5.30;63.70;;;;;;4926587;29;20091;-90
2021/01/27 05:01:41;;;;;;;18.90;10.40;;;5.30;63.80;;;;;;4929578;29;20032;-91
2021/01/27 05:04:16;;;;;;;20.27;10.40;;;5.40;63.80;;;;;;4927764;29;20439;-91
2021/01/27 05:06:48;;;;;;;15.00;9.50;;;5.40;63.70;;;;;;4927831;29;20394;-90
2021/01/27 05:09:29;;;;;;;17.20;10.07;;;5.40;63.60;;;;;;4931307;29;20047;-92
2021/01/27 05:11:56;;;;;;;15.60;9.57;;;5.30;63.50;;;;;;4933084;29;20028;-92
2021/01/27 05:14:24;;;;;;;16.77;9.50;;;5.30;63.50;;;;;;4944489;29;20437;-91
2021/01/27 05:16:51;;;;;;;18.52;9.65;;;5.30;63.60;;;;;;4942373;29;20107;-91
2021/01/27 05:19:17;;;;;;;14.13;9.18;;;5.30;63.40;;;;;;4939528;29;20095;-91
2021/01/27 05:21:49;;;;;;;17.95;10.40;;;5.30;63.40;;;;;;4937331;29;20414;-91
2021/01/27 05:24:14;;;;;;;21.77;9.70;;;5.30;63.20;;;;;;4939648;29;20074;-91
2021/01/27 05:26:57;;;;;;;16.30;10.10;;;5.30;63.30;;;;;;4939253;29;20102;-92
2021/01/27 05:29:34;;;;;;;18.33;9.68;;;5.30;63.20;;;;;;4938531;29;20039;-91
2021/01/27 05:32:21;;;;;;;17.75;10.23;;;5.30;63.00;;;;;;4938560;29;20099;-92
2021/01/27 05:34:50;;;;;;;16.60;10.07;;;5.30;62.70;;;;;;4938479;29;20394;-92
2021/01/27 05:37:27;;;;;;;14.98;9.45;;;5.30;62.90;;;;;;4937433;29;20034;-91
2021/01/27 05:40:10;;;;;;;18.08;10.18;;;5.20;62.80;;;;;;4940048;29;20402;-90
2021/01/27 05:42:37;;;;;;;18.92;10.63;;;5.30;62.70;;;;;;4944608;29;20031;-92
2021/01/27 05:45:32;;;;;;;25.20;10.10;;;5.20;62.80;;;;;;4942748;29;20409;-90
2021/01/27 05:48:18;;;;;;;17.77;9.82;;;5.20;62.70;;;;;;4942188;29;20091;-91
2021/01/27 05:50:44;;;;;;;20.80;10.50;;;5.20;62.60;;;;;;4942493;29;20051;-91
2021/01/27 05:53:11;;;;;;;15.75;9.57;;;5.20;62.70;;;;;;4942477;29;20031;-92
2021/01/27 05:55:54;;;;;;;17.05;10.15;;;5.10;62.70;;;;;;4944462;29;20028;-91
2021/01/27 05:58:20;;;;;;;19.83;10.50;;;5.10;62.60;;;;;;4942945;29;20034;-91
2021/01/27 06:00:45;;;;;;;16.00;9.50;;;5.10;62.80;;;;;;4936006;29;20466;-88
2021/01/27 06:03:12;;;;;;;17.55;10.55;;;5.10;62.70;;;;;;4921323;29;20044;-90
2021/01/27 06:05:40;;;;;;;20.90;10.98;;;5.10;62.70;;;;;;4923041;29;20119;-91
2021/01/27 06:08:17;;;;;;;21.40;11.02;;;5.10;62.60;;;;;;4932567;29;20035;-91
2021/01/27 06:10:43;;;;;;;22.40;10.35;;;5.00;62.50;;;;;;4926542;29;20024;-91
2021/01/27 06:13:17;;;;;;;17.00;10.25;;;5.00;62.60;;;;;;4926167;29;20056;-90
2021/01/27 06:15:43;;;;;;;19.90;10.73;;;5.00;62.50;;;;;;4926597;29;20032;-90
2021/01/27 06:18:20;;;;;;;20.02;10.38;;;5.00;62.50;;;;;;4928311;29;20029;-90
2021/01/27 06:20:46;;;;;;;18.77;10.00;;;5.00;62.50;;;;;;4927499;29;20423;-90
2021/01/27 06:23:53;;;;;;;19.50;9.85;;;5.00;62.60;;;;;;4928864;29;20059;-92
2021/01/27 06:26:21;;;;;;;25.90;13.60;;;5.00;62.40;;;;;;4922934;29;20028;-92
2021/01/27 06:29:18;;;;;;;34.33;16.60;;;5.00;62.50;;;;;;4916728;29;20146;-90
2021/01/27 06:31:58;;;;;;;41.20;17.75;;;5.00;62.30;;;;;;4917721;29;20483;-91
2021/01/27 06:34:45;;;;;;;42.13;18.50;;;5.00;62.30;;;;;;4918056;29;20039;-94
2021/01/27 06:37:31;;;;;;;42.88;19.85;;;5.10;62.30;;;;;;4918044;29;20450;-91
2021/01/27 06:40:15;;;;;;;35.72;17.70;;;5.10;62.40;;;;;;4917826;29;20037;-91
2021/01/27 06:42:53;;;;;;;34.85;17.88;;;5.10;62.20;;;;;;4917809;29;20135;-91
2021/01/27 06:45:19;;;;;;;27.63;14.85;;;5.20;62.20;;;;;;4917708;29;20083;-90
2021/01/27 06:47:55;;;;;;;21.90;12.82;;;5.20;62.20;;;;;;4918420;29;20036;-91
2021/01/27 06:50:48;;;;;;;18.13;10.55;;;5.30;61.90;;;;;;4918220;29;20052;-92
2021/01/27 06:53:23;;;;;;;19.95;10.43;;;5.30;61.80;;;;;;4917580;29;20036;-90
2021/01/27 06:56:27;;;;;;;18.38;10.30;;;5.30;61.80;;;;;;4917177;29;20036;-89
2021/01/27 06:59:14;;;;;;;20.98;10.77;;;5.30;61.70;;;;;;4917627;29;20036;-90
2021/01/27 07:01:48;;;;;;;42.88;21.52;;;5.30;61.60;;;;;;4916218;29;20028;-90
2021/01/27 07:04:16;;;;;;;20.67;10.75;;;5.40;61.90;;;;;;4918183;29;20442;-91
2021/01/27 07:06:53;;;;;;;23.95;12.82;;;5.40;61.80;;;;;;4921113;29;20025;-88
2021/01/27 07:09:45;;;;;;;16.27;9.90;;;5.30;62.00;;;;;;4920972;29;20024;-87
2021/01/27 07:12:17;;;;;;;16.80;10.25;;;5.40;62.10;;;;;;4898476;29;20133;-88
2021/01/27 07:14:52;;;;;;;19.80;10.98;;;5.40;62.30;;;;;;4927610;29;20573;-88
2021/01/27 07:17:20;;;;;;;20.48;11.02;;;5.50;62.50;;;;;;4930560;29;20047;-90
2021/01/27 07:20:13;;;;;;;16.30;10.23;;;5.50;62.50;;;;;;4938319;29;20036;-92
2021/01/27 07:23:01;;;;;;;18.27;10.27;;;5.60;62.40;;;;;;4933153;29;20109;-90
2021/01/27 07:25:44;;;;;;;17.50;10.23;;;5.50;62.50;;;;;;4933554;29;20499;-89
2021/01/27 07:28:22;;;;;;;19.38;10.93;;;5.60;62.70;;;;;;4928673;29;20021;-90
2021/01/27 07:31:00;;;;;;;19.45;10.07;;;5.50;62.50;;;;;;4928271;29;20017;-90
2021/01/27 07:33:37;;;;;;;21.50;10.63;;;5.50;62.70;;;;;;4928217;29;20019;-91
2021/01/27 07:36:25;;;;;;;17.98;9.60;;;5.50;62.80;;;;;;4930053;29;20462;-90
2021/01/27 07:38:55;;;;;;;16.88;10.25;;;5.50;63.00;;;;;;4933665;29;20040;-92
2021/01/27 07:41:26;;;;;;;17.08;10.30;;;5.60;63.10;;;;;;4920729;29;20036;-91
2021/01/27 07:44:05;;;;;;;17.75;9.98;;;5.60;63.20;;;;;;4922419;29;20028;-93
2021/01/27 07:46:59;;;;;;;21.15;11.57;;;5.70;63.20;;;;;;4923554;29;20032;-91
2021/01/27 07:49:38;;;;;;;18.58;10.82;;;5.70;63.30;;;;;;4924290;29;20343;-90
2021/01/27 07:52:12;;;;;;;19.10;10.98;;;5.80;63.40;;;;;;4920551;29;20028;-91
2021/01/27 07:54:46;;;;;;;18.25;10.90;;;5.90;63.30;;;;;;4920042;29;20036;-91
2021/01/27 07:57:30;;;;;;;18.80;11.00;;;5.90;63.30;;;;;;4920415;29;20075;-92
2021/01/27 08:00:20;;;;;;;21.48;10.65;;;6.00;63.40;;;;;;4921202;29;20365;-91
2021/01/27 08:03:07;;;;;;;21.00;11.02;;;6.00;63.40;;;;;;4921917;29;20063;-91
2021/01/27 08:05:38;;;;;;;19.98;11.18;;;6.10;63.90;;;;;;4920609;29;20074;-91
2021/01/27 08:08:11;;;;;;;21.83;12.00;;;6.20;63.40;;;;;;4924237;29;20059;-91
2021/01/27 08:10:37;;;;;;;17.17;10.98;;;6.20;63.20;;;;;;4941424;29;20449;-91
2021/01/27 08:13:07;;;;;;;18.75;10.48;;;6.20;63.20;;;;;;4939323;29;20069;-90
2021/01/27 08:15:32;;;;;;;20.77;11.10;;;6.20;62.80;;;;;;4938636;29;20046;-90
2021/01/27 08:18:14;;;;;;;21.48;11.40;;;6.20;62.80;;;;;;4938422;29;20107;-92
2021/01/27 08:20:42;;;;;;;18.35;10.48;;;6.20;62.80;;;;;;4938280;29;20087;-90
2021/01/27 08:23:23;;;;;;;20.27;12.05;;;6.20;62.90;;;;;;4934430;29;20067;-90
2021/01/27 08:25:56;;;;;;;19.73;11.18;;;6.10;62.70;;;;;;4930227;29;20091;-89
2021/01/27 08:28:25;;;;;;;21.67;11.48;;;6.10;63.00;;;;;;4927792;29;20051;-93
2021/01/27 08:31:09;;;;;;;21.05;12.45;;;6.10;63.20;;;;;;4926852;29;20469;-88
2021/01/27 08:33:54;;;;;;;19.40;11.00;;;6.10;63.30;;;;;;4927332;29;20028;-87
2021/01/27 08:36:29;;;;;;;20.85;11.50;;;6.10;63.10;;;;;;4927945;29;20028;-92
2021/01/27 08:38:57;;;;;;;21.58;12.40;;;6.00;63.20;;;;;;4927211;29;20028;-93
2021/01/27 08:41:42;;;;;;;20.65;11.48;;;6.10;63.50;;;;;;4928747;29;20035;-94
2021/01/27 08:44:36;;;;;;;21.85;12.10;;;6.10;63.50;;;;;;4934050;29;20042;-87
2021/01/27 08:47:08;;;;;;;23.30;12.15;;;6.00;63.40;;;;;;4933961;29;20042;-94
2021/01/27 08:49:56;;;;;;;23.92;12.07;;;6.00;63.70;;;;;;4937419;29;20048;-94
2021/01/27 08:52:25;;;;;;;21.88;12.25;;;6.00;63.70;;;;;;4932540;29;20083;-93
2021/01/27 08:54:51;;;;;;;24.98;12.40;;;6.00;64.00;;;;;;4945120;29;20036;-91
2021/01/27 08:57:26;;;;;;;22.75;12.80;;;5.90;64.00;;;;;;4943346;29;20036;-88
2021/01/27 09:00:08;;;;;;;22.60;12.15;;;5.90;64.20;;;;;;4953950;29;20024;-90
2021/01/27 09:03:00;;;;;;;23.17;12.75;;;5.90;64.00;;;;;;4943414;29;20031;-93
2021/01/27 09:05:26;;;;;;;21.05;12.88;;;5.90;64.50;;;;;;4935759;29;20028;-91
2021/01/27 09:08:12;;;;;;;19.55;12.63;;;5.90;64.80;;;;;;4936728;29;20030;-92
2021/01/27 09:10:40;;;;;;;22.67;13.27;;;6.00;64.80;;;;;;4933406;29;20016;-90
2021/01/27 09:13:33;;;;;;;24.15;13.45;;;6.00;64.90;;;;;;4939476;29;20043;-91
2021/01/27 09:16:15;;;;;;;28.80;14.30;;;6.10;65.00;;;;;;4932588;29;20036;-93
2021/01/27 09:18:43;;;;;;;28.30;14.07;;;6.10;64.90;;;;;;4929597;29;20043;-92
2021/01/27 09:21:18;;;;;;;29.20;14.57;;;6.20;64.90;;;;;;4929106;29;20083;-92
2021/01/27 09:23:46;;;;;;;34.25;15.25;;;6.30;65.20;;;;;;4927912;29;20036;-92
2021/01/27 09:26:22;;;;;;;34.10;16.48;;;6.30;65.10;;;;;;4929974;29;20031;-93
2021/01/27 09:28:49;;;;;;;33.10;16.67;;;6.30;65.00;;;;;;4929090;29;20024;-94
2021/01/27 09:31:19;;;;;;;31.27;16.52;;;6.40;65.10;;;;;;4928039;29;20500;-94
2021/01/27 09:33:45;;;;;;;32.92;16.92;;;6.40;64.90;;;;;;4927961;29;20035;-94
2021/01/27 09:36:23;;;;;;;31.98;16.98;;;6.40;64.90;;;;;;4929008;29;20119;-92
2021/01/27 09:38:53;;;;;;;32.50;17.33;;;6.40;64.90;;;;;;4933005;29;20024;-93
2021/01/27 09:41:30;;;;;;;23.02;13.57;;;6.40;65.00;;;;;;4933895;29;20051;-91
2021/01/27 09:43:58;;;;;;;27.67;13.90;;;6.30;64.80;;;;;;4927489;29;20032;-86
2021/01/27 09:46:37;;;;;;;24.92;14.00;;;6.30;64.70;;;;;;4926144;29;20023;-90
2021/01/27 09:49:06;;;;;;;22.25;12.68;;;6.20;64.90;;;;;;4930061;29;20075;-92
2021/01/27 09:51:33;;;;;;;44.40;22.65;;;6.20;65.00;;;;;;4928568;29;20028;-92
2021/01/27 09:54:00;;;;;;;23.77;14.40;;;6.20;65.10;;;;;;4927338;29;20083;-93
2021/01/27 09:56:29;;;;;;;24.88;12.82;;;6.20;65.40;;;;;;4930095;29;20039;-90
2021/01/27 09:59:00;;;;;;;24.42;14.05;;;6.20;65.60;;;;;;4929467;29;20056;-92
2021/01/27 10:01:31;;;;;;;24.30;13.43;;;6.20;65.70;;;;;;4926906;29;20083;-91
2021/01/27 10:04:12;;;;;;;24.13;13.43;;;6.30;65.60;;;;;;4928023;29;20064;-91
2021/01/27 10:06:46;;;;;;;24.73;13.55;;;6.20;65.60;;;;;;4926965;29;20470;-86
2021/01/27 10:09:27;;;;;;;24.95;14.35;;;6.20;65.60;;;;;;4925802;29;20051;-87
2021/01/27 10:12:05;;;;;;;27.00;13.68;;;6.20;65.60;;;;;;4926725;29;20059;-91
2021/01/27 10:14:33;;;;;;;26.23;14.50;;;6.20;65.70;;;;;;4920169;29;20119;-94
2021/01/27 10:17:01;;;;;;;25.17;14.90;;;6.20;65.70;;;;;;4918285;29;20036;-91
2021/01/27 10:19:30;;;;;;;21.33;12.43;;;6.20;65.80;;;;;;4917668;29;20122;-84
2021/01/27 10:21:57;;;;;;;22.80;12.80;;;6.10;65.80;;;;;;4916999;29;20453;-92
2021/01/27 10:24:44;;;;;;;23.08;13.30;;;6.20;66.20;;;;;;4917905;29;20047;-91
2021/01/27 10:27:21;;;;;;;21.17;12.05;;;6.20;66.20;;;;;;4921255;29;20036;-91
2021/01/27 10:29:48;;;;;;;22.17;11.73;;;6.20;66.00;;;;;;4926257;29;20049;-91
2021/01/27 10:32:20;;;;;;;19.92;11.95;;;6.20;66.10;;;;;;4924457;29;20078;-91
2021/01/27 10:34:48;;;;;;;21.40;11.95;;;6.20;66.00;;;;;;4921882;29;20064;-89
2021/01/27 10:37:36;;;;;;;19.10;11.25;;;6.20;66.10;;;;;;4916533;29;20028;-90
2021/01/27 10:40:18;;;;;;;19.15;11.10;;;6.20;66.10;;;;;;4917146;29;20470;-87
2021/01/27 10:43:13;;;;;;;20.30;10.60;;;6.20;66.10;;;;;;4919309;29;20032;-93
2021/01/27 10:45:42;;;;;;;18.90;11.07;;;6.10;66.20;;;;;;4913081;29;20056;-93
2021/01/27 10:48:10;;;;;;;20.85;10.60;;;6.20;66.00;;;;;;4918968;29;20107;-85
2021/01/27 10:51:04;;;;;;;21.05;10.18;;;6.10;66.00;;;;;;4919869;29;20383;-93
2021/01/27 10:53:36;;;;;;;17.08;9.98;;;6.10;66.10;;;;;;4915475;29;20082;-85
2021/01/27 10:56:02;;;;;;;21.20;10.55;;;6.00;66.20;;;;;;4917885;29;20143;-86
2021/01/27 10:58:29;;;;;;;17.00;9.65;;;6.00;66.40;;;;;;4917304;29;20446;-85
2021/01/27 11:00:55;;;;;;;16.73;9.93;;;6.00;66.60;;;;;;4916716;29;20505;-87
2021/01/27 11:03:21;;;;;;;20.98;10.38;;;6.00;66.70;;;;;;4917762;29;20036;-86
2021/01/27 11:05:47;;;;;;;18.08;9.80;;;6.00;66.80;;;;;;4917450;29;20040;-88
2021/01/27 11:08:26;;;;;;;17.35;10.50;;;6.00;66.80;;;;;;4917346;29;20032;-87
2021/01/27 11:10:52;;;;;;;16.63;9.93;;;6.00;66.90;;;;;;4915807;29;20063;-86
2021/01/27 11:13:20;;;;;;;18.63;10.30;;;6.00;66.80;;;;;;4917060;29;20036;-86
2021/01/27 11:15:46;;;;;;;21.48;12.02;;;6.00;66.80;;;;;;4916740;29;20099;-86
2021/01/27 11:18:12;;;;;;;22.45;11.32;;;6.00;66.90;;;;;;4917310;29;20056;-85
2021/01/27 11:20:37;;;;;;;19.70;10.88;;;6.00;66.80;;;;;;4917559;29;20525;-86
2021/01/27 11:23:03;;;;;;;17.10;10.73;;;5.90;66.50;;;;;;4917581;29;20047;-87
2021/01/27 11:25:29;;;;;;;21.48;10.57;;;5.90;66.80;;;;;;4918387;29;20347;-86
2021/01/27 11:27:56;;;;;;;21.83;11.45;;;5.80;67.00;;;;;;4918273;29;20063;-86
2021/01/27 11:30:24;;;;;;;22.15;11.82;;;5.80;67.20;;;;;;4917834;29;20115;-86
2021/01/27 11:32:51;;;;;;;16.38;10.20;;;5.80;67.40;;;;;;4918168;29;20475;-85
2021/01/27 11:35:17;;;;;;;17.95;10.38;;;5.80;67.40;;;;;;4918127;29;20036;-87
2021/01/27 11:37:44;;;;;;;20.25;10.63;;;5.80;67.20;;;;;;4917353;29;20084;-86
2021/01/27 11:40:11;;;;;;;17.60;10.25;;;5.80;67.50;;;;;;4918326;29;20055;-88
2021/01/27 11:42:37;;;;;;;17.45;10.63;;;5.80;67.40;;;;;;4917662;29;20394;-86
2021/01/27 11:45:07;;;;;;;17.58;10.77;;;5.80;67.60;;;;;;4916910;29;20039;-86
2021/01/27 11:47:34;;;;;;;18.45;10.68;;;5.80;67.60;;;;;;4917048;29;20040;-89
2021/01/27 11:49:59;;;;;;;19.65;11.20;;;5.80;67.70;;;;;;4916803;29;20099;-88
2021/01/27 11:52:25;;;;;;;17.00;10.25;;;5.80;67.80;;;;;;4921332;29;20103;-87
2021/01/27 11:54:51;;;;;;;17.50;10.30;;;5.80;67.80;;;;;;4921115;29;20055;-86
2021/01/27 11:57:20;;;;;;;16.70;10.45;;;5.80;67.70;;;;;;4921031;29;20107;-87
2021/01/27 11:59:46;;;;;;;18.63;11.32;;;5.80;67.80;;;;;;4920816;29;20382;-87
2021/01/27 12:02:12;;;;;;;17.92;10.32;;;5.80;67.80;;;;;;4920282;29;20028;-86
2021/01/27 12:04:38;;;;;;;18.25;10.07;;;5.80;67.60;;;;;;4920969;29;20035;-88
2021/01/27 12:07:06;;;;;;;15.23;9.13;;;5.70;67.60;;;;;;4922763;29;20067;-88
2021/01/27 12:09:32;;;;;;;18.17;10.15;;;5.70;67.70;;;;;;4904257;29;20040;-85
2021/01/27 12:11:58;;;;;;;14.75;9.50;;;5.70;67.70;;;;;;4920870;29;20066;-86
2021/01/27 12:17:51;;;;;;;19.90;9.63;;;5.70;68.20;;;;;;4920434;29;20095;-87
2021/01/27 12:20:18;;;;;;;16.73;8.82;;;5.70;68.30;;;;;;4920196;29;20044;-87
2021/01/27 12:22:44;;;;;;;15.35;9.90;;;5.70;68.20;;;;;;4920106;29;20036;-87
2021/01/27 12:25:10;;;;;;;15.07;9.38;;;5.70;68.10;;;;;;4937336;29;20032;-87
2021/01/27 12:27:36;;;;;;;17.38;9.90;;;5.70;68.10;;;;;;4938907;29;20490;-87
2021/01/27 12:30:04;;;;;;;15.68;9.35;;;5.70;68.10;;;;;;4938827;29;20028;-87
2021/01/27 12:32:30;;;;;;;15.20;8.65;;;5.60;68.00;;;;;;4938672;29;20028;-87
2021/01/27 12:34:56;;;;;;;17.73;9.48;;;5.60;68.10;;;;;;4939034;29;20046;-87
2021/01/27 12:37:21;;;;;;;15.23;8.82;;;5.50;68.20;;;;;;4938377;29;20051;-87
2021/01/27 12:39:47;;;;;;;17.38;9.75;;;5.50;68.40;;;;;;4938494;29;20028;-88
2021/01/27 12:42:13;;;;;;;19.95;11.35;;;5.40;68.50;;;;;;4937946;29;20114;-86
2021/01/27 12:44:40;;;;;;;17.70;9.48;;;5.40;68.70;;;;;;4938821;29;20055;-86
2021/01/27 12:47:06;;;;;;;17.73;9.20;;;5.40;68.80;;;;;;4939147;29;20470;-86
2021/01/27 12:49:32;;;;;;;17.45;10.23;;;5.40;68.70;;;;;;4938405;29;20055;-86
2021/01/27 12:51:58;;;;;;;16.40;9.80;;;5.30;68.80;;;;;;4938651;29;20488;-86
2021/01/27 12:54:24;;;;;;;18.35;9.88;;;5.30;68.80;;;;;;4921619;29;20094;-87
2021/01/27 12:56:49;;;;;;;22.48;10.15;;;5.30;68.90;;;;;;4938227;29;20382;-87
2021/01/27 12:59:15;;;;;;;21.80;11.48;;;5.30;69.00;;;;;;4938311;29;20028;-87
2021/01/27 13:01:41;;;;;;;21.77;10.65;;;5.20;69.00;;;;;;4936360;29;20067;-87
2021/01/27 13:04:07;;;;;;;18.27;10.65;;;5.20;69.20;;;;;;4927131;29;20107;-87
2021/01/27 13:06:33;;;;;;;19.45;10.75;;;5.10;69.20;;;;;;4937756;29;20493;-88
2021/01/27 13:08:58;;;;;;;20.85;11.38;;;5.10;69.00;;;;;;4938596;29;20094;-89